Flight Track Log - Related Links

Times and Time Zones

All times are in EDT time to prevent confusion due to time zone crossing. See the KAL824 flight status page for this flight to view local times or setup timezone preferences in your user account.

Time Position Orientation Groundspeed Altitude Reporting Facility
EDT Latitude Longitude Course Direction KTS MPH feet Rate Location/Type
Tue 12:49:57 AM 44.3650 129.1680 242° Southwest 371 427 17,700  Level FlightAware ADS-B
Tue 12:50:37 AM 44.3380 129.0970 242° Southwest 368 423 18,500 608 Climbing FlightAware ADS-B
Tue 12:51:16 AM 44.3110 129.0280 241° Southwest 368 423 18,500  Level FlightAware ADS-B
Tue 12:51:53 AM 44.2860 128.9620 242° Southwest 368 423 18,500  Level FlightAware ADS-B
Tue 12:52:29 AM 44.2620 128.8970 243° Southwest 368 423 18,500  Level FlightAware ADS-B
Tue 12:53:03 AM 44.2390 128.8370 242° Southwest 368 423 18,500  Level FlightAware ADS-B
Tue 12:53:40 AM 44.2140 128.7710 242° Southwest 368 423 18,500  Level FlightAware ADS-B
Tue 12:54:16 AM 44.1890 128.7070 241° Southwest 368 423 18,500  Level FlightAware ADS-B
Tue 12:56:00 AM 44.0941 128.6716 195° South  Level Estimated
Tue 12:57:00 AM 44.0393 128.6512 195° South  Level Estimated
Tue 12:58:00 AM 43.9845 128.6308 195° South  Level Estimated
Tue 12:59:00 AM 43.9297 128.6105 195° South  Level Estimated
Tue 01:00:00 AM 43.8749 128.5902 195° South  Level Estimated
Tue 01:01:00 AM 43.8201 128.5700 195° South  Level Estimated
Tue 01:02:00 AM 43.7653 128.5498 195° South  Level Estimated
Tue 01:03:00 AM 43.7105 128.5296 195° South  Level Estimated
Tue 01:04:00 AM 43.6557 128.5095 195° South  Level Estimated
Tue 01:05:00 AM 43.6009 128.4894 195° South  Level Estimated
Tue 01:06:00 AM 43.5461 128.4693 195° South  Level Estimated
Tue 01:07:00 AM 43.4913 128.4493 195° South  Level Estimated
Tue 01:08:00 AM 43.4365 128.4294 195° South  Level Estimated
Tue 01:09:00 AM 43.3816 128.4094 195° South  Level Estimated
Tue 01:10:00 AM 43.3268 128.3895 195° South  Level Estimated
Tue 01:11:00 AM 43.2720 128.3696 195° South  Level Estimated
Tue 01:12:00 AM 43.2172 128.3498 195° South  Level Estimated
Tue 01:13:00 AM 43.1623 128.3300 195° South  Level Estimated
Tue 01:14:00 AM 43.1075 128.3102 195° South  Level Estimated
Tue 01:15:00 AM 43.0526 128.2905 195° South  Level Estimated
Tue 01:16:00 AM 42.9978 128.2708 195° South  Level Estimated
Tue 01:17:00 AM 42.9429 128.2511 195° South  Level Estimated
Tue 01:18:00 AM 42.8881 128.2315 195° South  Level Estimated
Tue 01:19:00 AM 42.8332 128.2119 195° South  Level Estimated
Tue 01:20:00 AM 42.7784 128.1923 195° South  Level Estimated
Tue 01:21:00 AM 42.7235 128.1728 195° South  Level Estimated
Tue 01:22:00 AM 42.6686 128.1533 195° South  Level Estimated
Tue 01:23:00 AM 42.6138 128.1339 195° South  Level Estimated
Tue 01:24:00 AM 42.5589 128.1145 195° South  Level Estimated
Tue 01:25:00 AM 42.5040 128.0951 195° South  Level Estimated
Tue 01:26:00 AM 42.4491 128.0757 195° South  Level Estimated
Tue 01:27:00 AM 42.3951 128.0567 195° South  Level Estimated
Tue 01:28:00 AM 42.3410 128.0377 195° South  Level Estimated
Tue 01:29:00 AM 42.2869 128.0187 195° South  Level Estimated
Tue 01:30:00 AM 42.2328 127.9998 195° South  Level Estimated
Tue 01:31:00 AM 42.1787 127.9809 195° South  Level Estimated
Tue 01:32:00 AM 42.1246 127.9620 195° South  Level Estimated
Tue 01:33:00 AM 42.0705 127.9432 194° South  Level Estimated
Tue 01:34:00 AM 42.0164 127.9244 194° South  Level Estimated
Tue 01:35:00 AM 41.9623 127.9056 194° South  Level Estimated
Tue 01:36:00 AM 41.9082 127.8868 194° South  Level Estimated
Tue 01:37:00 AM 41.8541 127.8681 194° South  Level Estimated
Tue 01:38:00 AM 41.8000 127.8494 194° South  Level Estimated
Tue 01:39:00 AM 41.7459 127.8308 194° South  Level Estimated
Tue 01:40:00 AM 41.6917 127.8122 194° South  Level Estimated
Tue 01:41:00 AM 41.6376 127.7936 194° South  Level Estimated
Tue 01:42:00 AM 41.5835 127.7750 194° South  Level Estimated
Tue 01:43:00 AM 41.5294 127.7565 194° South  Level Estimated
Tue 01:44:00 AM 41.4753 127.7380 194° South  Level Estimated
Tue 01:45:00 AM 41.4211 127.7196 194° South  Level Estimated
Tue 01:46:00 AM 41.3670 127.7011 194° South  Level Estimated
Tue 01:47:00 AM 41.3128 127.6827 194° South  Level Estimated
Tue 01:48:00 AM 41.2587 127.6644 194° South  Level Estimated
Tue 01:49:00 AM 41.2046 127.6460 194° South  Level Estimated
Tue 01:50:00 AM 41.1504 127.6277 194° South  Level Estimated
Tue 01:51:00 AM 41.0963 127.6094 194° South  Level Estimated
Tue 01:52:00 AM 41.0421 127.5912 194° South  Level Estimated
Tue 01:53:00 AM 40.9879 127.5730 194° South  Level Estimated
Tue 01:54:00 AM 40.9338 127.5548 194° South  Level Estimated
Tue 01:55:00 AM 40.8796 127.5366 194° South  Level Estimated
Tue 01:56:00 AM 40.8255 127.5185 194° South  Level Estimated
Tue 01:57:00 AM 40.7713 127.5004 194° South  Level Estimated
Tue 01:58:00 AM 40.7171 127.4823 194° South  Level Estimated
Tue 01:59:00 AM 40.6629 127.4643 194° South  Level Estimated
Tue 02:00:00 AM 40.6088 127.4463 194° South  Level Estimated
Tue 02:01:00 AM 40.5546 127.4283 194° South  Level Estimated
Tue 02:02:00 AM 40.5004 127.4103 194° South  Level Estimated
Tue 02:03:00 AM 40.4462 127.3924 194° South  Level Estimated
Tue 02:04:00 AM 40.3920 127.3745 194° South  Level Estimated
Tue 02:05:00 AM 40.3378 127.3567 194° South  Level Estimated
Tue 02:06:00 AM 40.2837 127.3388 194° South  Level Estimated
Tue 02:07:00 AM 40.2295 127.3210 194° South  Level Estimated
Tue 02:08:00 AM 40.1753 127.3032 194° South  Level Estimated
Tue 02:09:00 AM 40.1211 127.2855 194° South  Level Estimated
Tue 02:10:00 AM 40.0669 127.2678 194° South  Level Estimated
Tue 02:11:00 AM 40.0126 127.2501 194° South  Level Estimated
Tue 02:12:00 AM 39.9584 127.2324 194° South  Level Estimated
Tue 02:13:00 AM 39.9042 127.2147 194° South  Level Estimated
Tue 02:14:00 AM 39.8500 127.1971 194° South  Level Estimated
Tue 02:15:00 AM 39.7958 127.1796 194° South  Level Estimated
Tue 02:16:00 AM 39.7416 127.1620 194° South  Level Estimated
Tue 02:17:00 AM 39.6874 127.1445 194° South  Level Estimated
Tue 02:18:00 AM 39.6331 127.1270 194° South  Level Estimated
Tue 02:19:00 AM 39.5789 127.1095 194° South  Level Estimated
Tue 02:20:00 AM 39.5247 127.0920 194° South  Level Estimated
Tue 02:21:00 AM 39.4704 127.0746 194° South  Level Estimated
Tue 02:22:00 AM 39.4162 127.0572 194° South  Level Estimated
Tue 02:23:00 AM 39.3620 127.0399 194° South  Level Estimated
Tue 02:24:00 AM 39.3077 127.0225 194° South  Level Estimated
Tue 02:25:00 AM 39.2535 127.0052 194° South  Level Estimated
Tue 02:26:00 AM 39.1992 126.9879 194° South  Level Estimated
Tue 02:27:00 AM 39.1450 126.9707 194° South  Level Estimated
Tue 02:28:00 AM 39.0907 126.9534 194° South  Level Estimated
Tue 02:29:00 AM 39.0365 126.9362 194° South  Level Estimated
Tue 02:30:00 AM 38.9822 126.9190 194° South  Level Estimated
Tue 02:31:00 AM 38.9280 126.9019 194° South  Level Estimated
Tue 02:32:00 AM 38.8737 126.8848 194° South  Level Estimated
Tue 02:33:00 AM 38.8194 126.8677 194° South  Level Estimated
Tue 02:34:00 AM 38.7652 126.8506 194° South  Level Estimated
Tue 02:35:00 AM 38.7109 126.8335 194° South  Level Estimated
Tue 02:36:00 AM 38.6566 126.8165 194° South  Level Estimated
Tue 02:37:00 AM 38.6024 126.7995 194° South  Level Estimated
Tue 02:38:00 AM 38.5481 126.7825 194° South  Level Estimated
Tue 02:39:00 AM 38.4938 126.7656 194° South  Level Estimated
Tue 02:40:00 AM 38.4395 126.7487 194° South  Level Estimated
Tue 02:41:00 AM 38.3852 126.7318 194° South  Level Estimated
Tue 02:42:00 AM 38.3310 126.7149 194° South  Level Estimated
Tue 02:43:00 AM 38.2767 126.6981 194° South  Level Estimated
Tue 02:44:00 AM 38.2224 126.6813 194° South  Level Estimated
Tue 02:45:00 AM 38.1681 126.6645 194° South  Level Estimated
Tue 02:46:00 AM 38.1138 126.6477 194° South  Level Estimated
Tue 02:47:00 AM 38.0595 126.6310 194° South  Level Estimated
Tue 02:48:00 AM 38.0052 126.6142 194° South  Level Estimated
Tue 02:49:00 AM 37.9509 126.5975 194° South  Level Estimated
Tue 02:50:00 AM 37.8966 126.5809 194° South  Level Estimated
Tue 02:51:00 AM 37.8423 126.5642 194° South  Level Estimated
Tue 02:52:00 AM 37.7880 126.5476 194° South  Level Estimated
Tue 02:53:00 AM 37.7337 126.5310 194° South  Level Estimated
Tue 02:54:00 AM 37.6793 126.5144 194° South  Level Estimated
Tue 02:55:00 AM 37.6250 126.4979 194° South  Level Estimated
Tue 02:56:00 AM 37.5707 126.4814 194° South  Level Estimated
Tue 02:57:00 AM 37.5164 126.4649 194° South  Level Estimated
Tue 02:58:00 AM 37.4691 126.4505 194° South  Level Estimated
Tue 02:59:00 AM 37.4691 126.4505 335° Northwest  Level Estimated
Tue 03:00:00 AM 37.4691 126.4505 335° Northwest  Level Estimated
Tue 03:01:00 AM 37.4691 126.4505 335° Northwest  Level Estimated
Tue 03:02:00 AM 37.4691 126.4505 335° Northwest  Level Estimated
Tue 03:03:00 AM 37.4691 126.4505 335° Northwest  Level Estimated
Tue 03:04:00 AM 37.4691 126.4505 335° Northwest  Level Estimated
Tue 03:05:00 AM 37.4691 126.4505 335° Northwest  Level Estimated
Tue 03:06:00 AM 37.4691 126.4505 335° Northwest  Level Estimated
Tue 03:07:00 AM 37.4691 126.4505 335° Northwest  Level Estimated
Tue 03:08:00 AM 37.4691 126.4505 335° Northwest  Level Estimated
Tue 03:09:00 AM 37.4691 126.4505 335° Northwest  Level Estimated
Tue 03:10:00 AM 37.4691 126.4505 335° Northwest  Level Estimated
Tue 03:11:00 AM 37.4691 126.4505 335° Northwest  Level Estimated
Tue 03:12:00 AM 37.4691 126.4505 335° Northwest  Level Estimated
Tue 03:13:00 AM 37.4691 126.4505 335° Northwest  Level Estimated
Tue 03:14:00 AM 37.4691 126.4505 335° Northwest  Level Estimated
Tue 03:15:00 AM 37.4691 126.4505 335° Northwest  Level Estimated
Tue 03:16:00 AM 37.4691 126.4505 335° Northwest  Level Estimated

Login

Don't have an account? Register now (free) for customized features, flight alerts, and more!